ENNA METAR and TAF weather

Enter ICAO airport designator
Station Type Date Time Source
ENNA METAR 2021/03/05 00:20 UTC NOAA

ENNA 050020Z 12006KT 070V150 9999 SCT022 BKN031 M08/M10 Q1010 RMK WIND 1800FT 28012KT


Station Type Date Time Source
ENNA Decoded METAR 2021/03/05 00:20 UTC NOAA

Banak, Norway (ENNA) 70-04N 024-59E 8M
Mar 04, 2021 - 07:20 PM EST / 2021.03.05 0020 UTC
Wind: from the ESE (120 degrees) at 7 MPH (6 KT) (direction variable):0
Visibility: greater than 7 mile(s):0
Sky conditions: mostly cloudy
Temperature: 17 F (-8 C)
Windchill: 6 F (-14 C):1
Dew Point: 14 F (-10 C)
Relative Humidity: 85%
Pressure (altimeter): 29.83 in. Hg (1010 hPa)
ob: ENNA 050020Z 12006KT 070V150 9999 SCT022 BKN031 M08/M10 Q1010 RMK WIND 1800FT 28012KT
cycle: 0

Station Type Date Time Source
ENNA TAF 2021/03/04 18:57 UTC NOAA

TAF TAF ENNA 041700Z 0418/0518 34008KT 9999 FEW010 BKN035
TEMPO 0418/0424 34018KT
TEMPO 0418/0509 2000 SHSN VV010
BECMG 0515/0517 18012KT

Example: see airport list